Time;durP1;ratioP1;P1;durP2;ratioP2;P2;SDS_P1;SDS_P2;PMS_P1;PMS_P2;Temp;Humidity;BMP_temperature;BMP_pressure;BME280_temperature;BME280_humidity;BME280_pressure;Samples;Min_cycle;Max_cycle;Signal;HPM_P1;HPM_P2
2023/04/17 00:00:03;;;;;;;;;;;;;;;15.48;56.47;100311.69;5029747;28;1046;-47
2023/04/17 00:02:31;;;;;;;;;;;;;;;15.42;56.36;100307.31;5029629;28;1008;-42
2023/04/17 00:04:58;;;;;;;;;;;;;;;15.65;57.48;100317.66;5029858;28;1119;-43
2023/04/17 00:07:27;;;;;;;;;;;;;;;16.97;56.85;100338.47;5023041;28;1008;-48
2023/04/17 00:09:52;;;;;;;;;;;;;;;16.56;57.21;100341.44;5035587;28;1051;-46
2023/04/17 00:12:18;;;;;;;;;;;;;;;16.06;57.24;100336.75;5036200;28;1125;-45
2023/04/17 00:14:43;;;;;;;;;;;;;;;15.83;57.22;100345.63;5021668;28;1917;-45
2023/04/17 00:17:09;;;;;;;;;;;;;;;15.67;56.73;100347.53;5029218;28;1173;-45
2023/04/17 00:19:35;;;;;;;;;;;;;;;15.54;56.47;100355.25;5029407;28;1131;-46
2023/04/17 00:22:00;;;;;;;;;;;;;;;15.47;56.07;100362.09;5036400;28;1059;-44
2023/04/17 00:24:26;;;;;;;;;;;;;;;15.41;56.14;100372.25;5022502;28;1558;-45
2023/04/17 00:26:51;;;;;;;;;;;;;;;15.84;57.48;100382.91;5029425;28;1123;-46
2023/04/17 00:29:17;;;;;;;;;;;;;;;17.08;56.68;100386.72;5017529;28;1106;-47
2023/04/17 00:31:43;;;;;;;;;;;;;;;16.40;57.56;100398.34;5028922;28;1110;-44
2023/04/17 00:34:08;;;;;;;;;;;;;;;16.01;57.38;100396.31;5028661;28;1989;-46
2023/04/17 00:36:34;;;;;;;;;;;;;;;15.79;56.97;100382.88;5023115;28;1142;-43
2023/04/17 00:39:00;;;;;;;;;;;;;;;15.64;56.72;100386.47;5035574;28;1035;-44
2023/04/17 00:41:25;;;;;;;;;;;;;;;15.53;56.61;100393.91;5035651;28;1441;-44
2023/04/17 00:43:51;;;;;;;;;;;;;;;15.40;56.33;100382.41;5023596;28;1146;-49
2023/04/17 00:46:17;;;;;;;;;;;;;;;16.65;57.24;100364.44;5027404;28;1108;-46
2023/04/17 00:48:43;;;;;;;;;;;;;;;17.02;56.40;100335.66;5011162;28;1068;-43
2023/04/17 00:51:08;;;;;;;;;;;;;;;16.20;57.40;100330.66;5035559;28;1106;-46
2023/04/17 00:53:34;;;;;;;;;;;;;;;15.99;57.06;100327.19;5026359;28;1894;-42
2023/04/17 00:56:00;;;;;;;;;;;;;;;15.83;56.92;100313.53;5033434;28;1047;-43
2023/04/17 00:58:25;;;;;;;;;;;;;;;15.64;56.61;100306.97;5022499;28;1139;-46
2023/04/17 01:00:51;;;;;;;;;;;;;;;15.55;56.29;100298.53;5034509;28;1110;-43
2023/04/17 01:03:17;;;;;;;;;;;;;;;15.44;56.31;100294.16;5034458;28;1233;-43
2023/04/17 01:05:42;;;;;;;;;;;;;;;15.48;56.78;100285.09;5035068;28;1172;-47
2023/04/17 01:08:08;;;;;;;;;;;;;;;16.82;56.87;100289.13;5023917;28;1099;-47
2023/04/17 01:10:34;;;;;;;;;;;;;;;16.90;56.52;100291.25;5029090;28;1107;-45
2023/04/17 01:13:02;;;;;;;;;;;;;;;16.21;57.55;100302.13;5027877;28;1047;-45
2023/04/17 01:15:28;;;;;;;;;;;;;;;15.92;57.07;100322.00;5034407;28;1977;-45
2023/04/17 01:17:54;;;;;;;;;;;;;;;15.81;56.71;100325.88;5035607;28;983;-46
2023/04/17 01:20:20;;;;;;;;;;;;;;;15.63;56.58;100341.81;5034012;28;1226;-47
2023/04/17 01:22:52;;;;;;;;;;;;;;;15.52;56.32;100348.41;5033884;28;1242;-46
2023/04/17 01:25:18;;;;;;;;;;;;;;;15.42;56.08;100356.63;5029391;28;1148;-42
2023/04/17 01:27:44;;;;;;;;;;;;;;;15.34;56.16;100355.28;5031221;28;1175;-44
2023/04/17 01:30:10;;;;;;;;;;;;;;;16.18;57.71;100380.31;5032289;28;1040;-45
2023/04/17 01:32:42;;;;;;;;;;;;;;;17.24;56.29;100376.41;5048060;28;1127;-47
2023/04/17 01:35:09;;;;;;;;;;;;;;;16.38;57.57;100390.41;5030473;28;1984;-47
2023/04/17 01:37:35;;;;;;;;;;;;;;;15.99;57.29;100399.31;5031727;28;1134;-47
2023/04/17 01:40:00;;;;;;;;;;;;;;;15.83;56.94;100392.22;5038988;28;1014;-47
2023/04/17 01:42:26;;;;;;;;;;;;;;;15.65;56.58;100405.38;5037430;28;1308;-42
2023/04/17 01:44:52;;;;;;;;;;;;;;;15.52;56.40;100395.81;5038565;28;1092;-44
2023/04/17 01:47:18;;;;;;;;;;;;;;;15.43;56.46;100397.47;5037218;28;1110;-43
2023/04/17 01:49:43;;;;;;;;;;;;;;;15.42;56.51;100403.19;5031655;28;1186;-45
2023/04/17 01:52:09;;;;;;;;;;;;;;;16.68;57.11;100402.31;5032319;28;1021;-46
2023/04/17 01:54:35;;;;;;;;;;;;;;;16.53;57.34;100405.13;5025834;28;1976;-47
2023/04/17 01:57:01;;;;;;;;;;;;;;;16.04;57.36;100413.00;5037399;28;1046;-45
2023/04/17 01:59:26;;;;;;;;;;;;;;;15.82;57.16;100404.28;5025197;28;1167;-45
2023/04/17 02:01:53;;;;;;;;;;;;;;;15.58;57.11;100393.88;5037320;28;1127;-46
2023/04/17 02:04:18;;;;;;;;;;;;;;;15.51;56.65;100393.34;5038403;28;1031;-47
2023/04/17 02:06:44;;;;;;;;;;;;;;;15.43;56.42;100402.13;5025173;28;1182;-45
2023/04/17 02:09:10;;;;;;;;;;;;;;;15.87;57.69;100412.50;5036686;28;1261;-45
2023/04/17 02:11:37;;;;;;;;;;;;;;;17.08;56.40;100419.69;5023645;28;1546;-44
2023/04/17 02:14:03;;;;;;;;;;;;;;;16.21;57.39;100414.59;5038183;28;1910;-45
2023/04/17 02:16:30;;;;;;;;;;;;;;;15.87;57.37;100412.50;5037271;28;1071;-42
2023/04/17 02:18:56;;;;;;;;;;;;;;;15.72;57.16;100419.66;5026188;28;1020;-43
2023/04/17 02:21:21;;;;;;;;;;;;;;;15.56;56.62;100413.34;5025155;28;1119;-47
2023/04/17 02:23:47;;;;;;;;;;;;;;;15.49;56.48;100412.00;5037772;28;1027;-49
2023/04/17 02:26:13;;;;;;;;;;;;;;;15.47;56.96;100425.13;5036777;28;1107;-45
2023/04/17 02:28:38;;;;;;;;;;;;;;;16.83;57.16;100428.03;5018808;28;1130;-47
2023/04/17 02:31:07;;;;;;;;;;;;;;;16.71;56.80;100420.97;5031436;28;1139;-47
2023/04/17 02:33:35;;;;;;;;;;;;;;;16.10;57.50;100416.53;5025653;28;1906;-47
2023/04/17 02:36:02;;;;;;;;;;;;;;;15.83;57.04;100394.97;5024835;28;1201;-42
2023/04/17 02:38:36;;;;;;;;;;;;;;;15.67;56.68;100397.72;5035296;28;1262;-43
2023/04/17 02:41:03;;;;;;;;;;;;;;;15.57;56.44;100394.97;5036129;28;1023;-49
2023/04/17 02:43:29;;;;;;;;;;;;;;;15.49;56.21;100401.03;5036486;28;1251;-47
2023/04/17 02:45:55;;;;;;;;;;;;;;;15.61;57.10;100396.06;5022736;28;1286;-47
2023/04/17 02:48:21;;;;;;;;;;;;;;;16.90;56.78;100390.94;5026482;28;1176;-48
2023/04/17 02:50:47;;;;;;;;;;;;;;;16.49;57.33;100379.38;5034025;28;1175;-44
2023/04/17 02:53:16;;;;;;;;;;;;;;;16.00;57.39;100392.72;5036245;28;1910;-47
2023/04/17 02:55:42;;;;;;;;;;;;;;;15.81;56.98;100391.66;5037292;28;1138;-44
2023/04/17 02:58:07;;;;;;;;;;;;;;;15.65;56.89;100391.66;5037214;28;900;-48
2023/04/17 03:00:33;;;;;;;;;;;;;;;15.56;56.53;100398.81;5033447;28;1074;-46
2023/04/17 03:02:59;;;;;;;;;;;;;;;15.44;56.25;100406.50;5026259;28;1266;-45
2023/04/17 03:05:28;;;;;;;;;;;;;;;15.46;56.98;100407.88;5032888;28;1122;-47
2023/04/17 03:07:57;;;;;;;;;;;;;;;16.85;56.87;100409.38;5028537;28;984;-42
2023/04/17 03:10:22;;;;;;;;;;;;;;;16.49;57.15;100421.34;5021891;28;1260;-47
2023/04/17 03:12:48;;;;;;;;;;;;;;;15.96;57.57;100421.78;5036068;28;1183;-44
2023/04/17 03:15:14;;;;;;;;;;;;;;;15.79;57.01;100433.06;5035537;28;1909;-45
2023/04/17 03:17:39;;;;;;;;;;;;;;;15.63;56.64;100429.50;5026476;28;1115;-45
2023/04/17 03:20:06;;;;;;;;;;;;;;;15.50;56.72;100443.75;5016773;28;1342;-41
2023/04/17 03:22:32;;;;;;;;;;;;;;;15.39;56.45;100457.47;5036877;28;967;-46
2023/04/17 03:24:58;;;;;;;;;;;;;;;15.30;56.30;100463.75;5022539;28;1404;-47
2023/04/17 03:27:26;;;;;;;;;;;;;;;16.39;57.52;100466.09;5034757;28;1746;-46
2023/04/17 03:29:53;;;;;;;;;;;;;;;16.85;56.66;100469.78;5023589;28;1215;-47
2023/04/17 03:32:18;;;;;;;;;;;;;;;16.10;57.39;100468.66;5008567;28;1391;-46
2023/04/17 03:34:44;;;;;;;;;;;;;;;15.77;57.55;100468.16;5022018;28;1890;-47
2023/04/17 03:37:10;;;;;;;;;;;;;;;15.63;56.81;100472.56;5024696;28;1476;-47
2023/04/17 03:39:36;;;;;;;;;;;;;;;15.53;56.52;100487.88;5032735;28;1403;-43
2023/04/17 03:42:02;;;;;;;;;;;;;;;15.39;56.36;100493.09;5035128;28;1386;-48
2023/04/17 03:44:27;;;;;;;;;;;;;;;15.62;57.54;100499.13;5031127;28;1127;-47
2023/04/17 03:46:53;;;;;;;;;;;;;;;16.96;56.64;100490.63;5016308;28;1127;-45
2023/04/17 03:49:19;;;;;;;;;;;;;;;16.43;57.31;100489.16;5021019;28;1395;-46
2023/04/17 03:51:45;;;;;;;;;;;;;;;16.01;57.29;100495.84;5022569;28;1223;-46
2023/04/17 03:54:16;;;;;;;;;;;;;;;15.81;56.85;100501.34;5021922;28;1902;-47
2023/04/17 03:56:43;;;;;;;;;;;;;;;15.63;56.73;100502.69;5032393;28;1443;-48
2023/04/17 03:59:10;;;;;;;;;;;;;;;15.49;56.68;100503.22;5011594;28;1319;-48
2023/04/17 04:01:41;;;;;;;;;;;;;;;15.39;56.42;100506.78;5015046;28;1207;-44
2023/04/17 04:04:12;;;;;;;;;;;;;;;16.56;57.32;100511.63;5023125;28;1174;-57
2023/04/17 04:06:38;;;;;;;;;;;;;;;17.00;56.30;100508.19;5015862;28;1051;-57
2023/04/17 04:09:06;;;;;;;;;;;;;;;16.21;57.49;100494.16;5020401;28;1514;-57
2023/04/17 04:11:32;;;;;;;;;;;;;;;15.88;57.64;100505.47;5017080;28;1226;-49
2023/04/17 04:13:57;;;;;;;;;;;;;;;15.70;57.17;100489.53;5016548;28;1989;-52
2023/04/17 04:16:23;;;;;;;;;;;;;;;15.53;57.07;100490.63;5048298;28;1234;-51
2023/04/17 04:18:52;;;;;;;;;;;;;;;15.45;56.67;100490.34;5015055;28;1448;-51
2023/04/17 04:21:18;;;;;;;;;;;;;;;15.28;56.62;100483.22;5015283;28;1297;-57
2023/04/17 04:23:44;;;;;;;;;;;;;;;15.72;57.79;100479.13;5015220;28;1292;-50
2023/04/17 04:26:12;;;;;;;;;;;;;;;16.89;56.96;100481.88;5014121;28;1320;-54
2023/04/17 04:28:47;;;;;;;;;;;;;;;15.99;57.95;100467.88;5014517;28;1420;-53
2023/04/17 04:31:24;;;;;;;;;;;;;;;15.73;57.83;100470.59;5014326;28;1512;-54
2023/04/17 04:33:53;;;;;;;;;;;;;;;15.59;57.44;100465.97;5014395;28;1906;-56
2023/04/17 04:36:20;;;;;;;;;;;;;;;15.43;57.03;100476.94;4995120;28;1279;-56
2023/04/17 04:38:50;;;;;;;;;;;;;;;15.28;56.80;100460.44;4995201;28;1200;-55
2023/04/17 04:41:28;;;;;;;;;;;;;;;16.31;57.69;100460.38;4994834;28;1409;-53
2023/04/17 04:43:54;;;;;;;;;;;;;;;16.98;56.36;100449.94;4994804;28;1104;-56
2023/04/17 04:46:20;;;;;;;;;;;;;;;16.11;57.79;100451.13;5009261;28;1235;-57
2023/04/17 04:48:47;;;;;;;;;;;;;;;15.80;57.52;100447.63;5014407;28;2244;-55
2023/04/17 04:51:13;;;;;;;;;;;;;;;15.64;57.20;100458.56;5014270;28;1239;-56
2023/04/17 04:53:39;;;;;;;;;;;;;;;15.48;57.10;100460.47;5014651;28;1975;-54
2023/04/17 04:56:05;;;;;;;;;;;;;;;15.42;56.78;100472.53;5015534;28;1237;-56
2023/04/17 04:58:32;;;;;;;;;;;;;;;15.33;56.66;100479.66;5016864;28;1211;-54
2023/04/17 05:01:00;;;;;;;;;;;;;;;15.28;56.79;100493.31;5015601;28;1243;-55
2023/04/17 05:03:37;;;;;;;;;;;;;;;16.64;57.42;100497.31;5019202;28;1144;-51
2023/04/17 05:06:04;;;;;;;;;;;;;;;16.18;58.11;100498.28;5018136;28;1324;-53
2023/04/17 05:08:40;;;;;;;;;;;;;;;16.76;57.33;100505.25;5018283;28;1239;-53
2023/04/17 05:11:10;;;;;;;;;;;;;;;16.07;55.61;100510.38;5029304;28;1348;-52
2023/04/17 05:13:36;;;;;;;;;;;;;;;15.81;53.24;100506.81;5018269;28;1894;-55
2023/04/17 05:16:02;;;;;;;;;;;;;;;16.66;56.03;100506.13;5025370;28;1368;-52
2023/04/17 05:18:28;;;;;;;;;;;;;;;16.19;54.32;100501.84;5024260;28;1254;-53
2023/04/17 05:20:54;;;;;;;;;;;;;;;15.78;52.79;100497.22;5019502;28;1202;-51
2023/04/17 05:23:21;;;;;;;;;;;;;;;15.70;51.24;100495.03;5023530;28;1163;-55
2023/04/17 05:25:49;;;;;;;;;;;;;;;15.49;50.19;100489.53;5030514;28;1173;-54
2023/04/17 05:28:15;;;;;;;;;;;;;;;16.28;52.92;100471.94;5019256;28;1143;-56
2023/04/17 05:30:41;;;;;;;;;;;;;;;15.84;51.74;100478.88;5018113;28;1296;-55
2023/04/17 05:33:13;;;;;;;;;;;;;;;17.13;53.50;100476.50;5018708;28;1181;-56
2023/04/17 05:35:48;;;;;;;;;;;;;;;16.54;53.85;100467.19;5025101;28;1339;-56
2023/04/17 05:38:14;;;;;;;;;;;;;;;16.10;51.99;100474.16;5019008;28;1123;-56
2023/04/17 05:40:39;;;;;;;;;;;;;;;16.92;53.38;100470.31;5019449;28;1258;-56
2023/04/17 05:43:06;;;;;;;;;;;;;;;16.23;52.22;100464.53;5019018;28;1000;-56
2023/04/17 05:45:32;;;;;;;;;;;;;;;16.94;53.02;100465.34;5020076;28;1171;-57
2023/04/17 05:47:58;;;;;;;;;;;;;;;16.90;53.33;100450.53;5018131;28;1198;-55
2023/04/17 05:50:23;;;;;;;;;;;;;;;16.49;51.98;100435.06;5019144;28;1135;-54
2023/04/17 05:52:49;;;;;;;;;;;;;;;16.24;50.69;100427.75;5019482;28;1175;-56
2023/04/17 05:55:16;;;;;;;;;;;;;;;16.12;49.47;100436.31;5017756;28;1918;-55
2023/04/17 05:57:42;;;;;;;;;;;;;;;15.96;49.00;100432.75;5020736;28;1344;-55
2023/04/17 06:00:10;;;;;;;;;;;;;;;16.79;51.41;100444.28;5024241;28;1313;-56
2023/04/17 06:02:41;;;;;;;;;;;;;;;16.33;51.45;100448.03;5018708;28;1012;-55
2023/04/17 06:05:10;;;;;;;;;;;;;;;16.06;50.10;100462.09;5017739;28;1287;-56
2023/04/17 06:07:37;;;;;;;;;;;;;;;17.27;51.58;100466.50;5017850;28;1246;-56
2023/04/17 06:10:05;;;;;;;;;;;;;;;16.56;51.83;100478.69;5020430;28;1191;-57
2023/04/17 06:12:31;;;;;;;;;;;;;;;16.32;50.59;100495.78;5016406;28;1928;-56
2023/04/17 06:14:57;;;;;;;;;;;;;;;16.91;52.08;100515.34;5033836;28;1925;-56
2023/04/17 06:17:23;;;;;;;;;;;;;;;16.32;51.62;100534.19;5017076;28;1223;-56
2023/04/17 06:19:48;;;;;;;;;;;;;;;16.84;51.75;100539.53;5050273;28;1296;-57
2023/04/17 06:22:14;;;;;;;;;;;;;;;16.61;51.66;100547.28;5024601;28;1166;-57
2023/04/17 06:24:39;;;;;;;;;;;;;;;16.33;50.36;100546.00;5020906;28;1243;-57
2023/04/17 06:27:05;;;;;;;;;;;;;;;16.18;49.42;100549.59;5017292;28;1356;-57
2023/04/17 06:29:31;;;;;;;;;;;;;;;16.15;49.21;100548.22;5018266;28;1134;-55
2023/04/17 06:31:56;;;;;;;;;;;;;;;16.64;50.80;100545.91;5017071;28;1147;-56
2023/04/17 06:34:22;;;;;;;;;;;;;;;16.26;49.96;100540.81;5022194;28;1988;-56
2023/04/17 06:36:48;;;;;;;;;;;;;;;17.25;50.83;100544.84;5003585;28;1291;-57
2023/04/17 06:39:15;;;;;;;;;;;;;;;16.54;50.89;100535.78;5017099;28;1211;-57
2023/04/17 06:41:41;;;;;;;;;;;;;;;16.33;49.47;100524.88;5018156;28;1222;-57
2023/04/17 06:44:07;;;;;;;;;;;;;;;16.23;49.24;100531.19;5017771;28;1161;-57
2023/04/17 06:46:53;;;;;;;;;;;;;;;16.49;50.17;100538.53;5021149;28;1199;-57
2023/04/17 06:49:19;;;;;;;;;;;;;;;16.20;49.36;100534.50;5016847;28;1233;-55
2023/04/17 06:51:46;;;;;;;;;;;;;;;16.13;48.46;100530.38;5016552;28;1229;-57
2023/04/17 06:54:12;;;;;;;;;;;;;;;16.06;48.21;100526.00;5017538;28;1979;-57
2023/04/17 06:56:37;;;;;;;;;;;;;;;16.83;49.68;100521.41;5017614;28;1131;-56
2023/04/17 06:59:03;;;;;;;;;;;;;;;16.31;49.52;100521.56;5028180;28;1060;-56
2023/04/17 07:01:30;;;;;;;;;;;;;;;16.19;48.57;100534.78;5004709;28;1417;-57
2023/04/17 07:03:55;;;;;;;;;;;;;;;16.72;49.64;100537.13;5017806;28;1226;-57
2023/04/17 07:06:22;;;;;;;;;;;;;;;16.63;49.98;100527.81;5017447;28;1110;-57
2023/04/17 07:08:48;;;;;;;;;;;;;;;16.28;49.37;100533.09;5017558;28;1056;-57
2023/04/17 07:11:14;;;;;;;;;;;;;;;16.10;48.57;100528.19;5021501;28;904;-55
2023/04/17 07:13:39;;;;;;;;;;;;;;;16.62;49.30;100523.41;5017492;28;1971;-56
2023/04/17 07:16:05;;;;;;;;;;;;;;;16.86;50.19;100535.41;5017454;28;1135;-56
2023/04/17 07:18:31;;;;;;;;;;;;;;;16.34;49.62;100537.50;5017282;28;1074;-57
2023/04/17 07:20:56;;;;;;;;;;;;;;;16.13;48.95;100530.38;5017058;28;1123;-57
2023/04/17 07:23:22;;;;;;;;;;;;;;;17.28;49.61;100544.28;5028373;28;1229;-57
2023/04/17 07:25:48;;;;;;;;;;;;;;;16.46;50.09;100528.13;5017458;28;1114;-57
2023/04/17 07:28:13;;;;;;;;;;;;;;;16.32;49.18;100517.72;5017023;28;1210;-57
2023/04/17 07:30:41;;;;;;;;;;;;;;;17.05;50.05;100518.31;5017408;28;1131;-56
2023/04/17 07:33:06;;;;;;;;;;;;;;;16.53;49.98;100518.50;5017187;28;1068;-56
2023/04/17 07:35:32;;;;;;;;;;;;;;;16.33;49.13;100524.88;5018303;28;1909;-57
2023/04/17 07:38:00;;;;;;;;;;;;;;;16.69;49.55;100519.28;5016629;28;1186;-56
2023/04/17 07:40:26;;;;;;;;;;;;;;;16.56;49.86;100530.84;5016807;28;1103;-56
2023/04/17 07:42:52;;;;;;;;;;;;;;;16.29;49.04;100537.50;5017116;28;1206;-55
2023/04/17 07:45:18;;;;;;;;;;;;;;;16.21;48.50;100549.03;5017191;28;1072;-55
2023/04/17 07:47:43;;;;;;;;;;;;;;;17.15;49.51;100561.38;5025263;28;1218;-54
2023/04/17 07:50:09;;;;;;;;;;;;;;;16.52;49.77;100559.94;5016467;28;1114;-56
2023/04/17 07:52:35;;;;;;;;;;;;;;;16.21;49.06;100549.03;5016822;28;1103;-51
2023/04/17 07:55:00;;;;;;;;;;;;;;;16.63;49.52;100567.03;5016970;28;1970;-56
2023/04/17 07:57:26;;;;;;;;;;;;;;;16.53;49.75;100567.09;5016132;28;1099;-57
2023/04/17 07:59:52;;;;;;;;;;;;;;;16.34;48.94;100570.41;5004053;28;1243;-57
2023/04/17 08:02:18;;;;;;;;;;;;;;;16.21;48.25;100570.97;5007996;28;1171;-58
2023/04/17 08:04:44;;;;;;;;;;;;;;;16.15;48.01;100574.84;5016472;28;1031;-58
2023/04/17 08:07:11;;;;;;;;;;;;;;;17.00;49.25;100570.50;5017154;28;1139;-57
2023/04/17 08:09:37;;;;;;;;;;;;;;;16.34;49.41;100581.41;5016706;28;1225;-57
2023/04/17 08:12:03;;;;;;;;;;;;;;;16.18;48.56;100588.00;5018532;28;896;-58
2023/04/17 08:14:28;;;;;;;;;;;;;;;16.14;47.67;100582.22;5016680;28;1977;-57
2023/04/17 08:16:54;;;;;;;;;;;;;;;16.59;48.49;100575.03;5016567;28;1072;-59
2023/04/17 08:19:20;;;;;;;;;;;;;;;16.57;49.38;100574.47;5016358;28;1098;-58
2023/04/17 08:21:48;;;;;;;;;;;;;;;16.31;48.55;100587.41;5016768;28;1122;-58
2023/04/17 08:24:15;;;;;;;;;;;;;;;16.15;48.57;100577.56;5025371;28;1182;-57
2023/04/17 08:26:40;;;;;;;;;;;;;;;17.34;49.22;100576.13;5016454;28;1249;-57
2023/04/17 08:29:07;;;;;;;;;;;;;;;16.59;49.46;100574.19;5016323;28;1064;-57
2023/04/17 08:31:35;;;;;;;;;;;;;;;16.23;48.68;100579.78;5016063;28;1040;-57
2023/04/17 08:34:01;;;;;;;;;;;;;;;17.30;49.25;100582.47;5016117;28;1906;-58
2023/04/17 08:36:27;;;;;;;;;;;;;;;16.57;49.61;100581.91;5017272;28;1111;-56
2023/04/17 08:38:53;;;;;;;;;;;;;;;16.25;48.81;100577.56;5004788;28;1372;-57
2023/04/17 08:41:20;;;;;;;;;;;;;;;16.24;47.55;100576.75;5020202;28;1171;-55
2023/04/17 08:43:47;;;;;;;;;;;;;;;17.06;48.72;100592.19;5032407;28;1092;-56
2023/04/17 08:46:13;;;;;;;;;;;;;;;16.37;48.96;100600.03;5020183;28;1070;-55
2023/04/17 08:48:39;;;;;;;;;;;;;;;16.28;48.08;100598.13;5030421;28;1091;-56
2023/04/17 08:51:05;;;;;;;;;;;;;;;16.84;49.10;100600.75;5019969;28;1039;-56
2023/04/17 08:53:30;;;;;;;;;;;;;;;16.42;48.79;100602.78;5020137;28;1914;-56
2023/04/17 08:55:56;;;;;;;;;;;;;;;16.14;48.41;100609.66;5019725;28;1035;-51
2023/04/17 08:58:24;;;;;;;;;;;;;;;16.15;47.40;100605.81;5005132;28;1103;-53
2023/04/17 09:00:50;;;;;;;;;;;;;;;16.83;48.75;100604.63;5030272;28;868;-51
2023/04/17 09:03:16;;;;;;;;;;;;;;;16.31;48.47;100603.06;5019602;28;1055;-51
2023/04/17 09:05:44;;;;;;;;;;;;;;;16.18;47.95;100598.97;5020371;28;1151;-52
2023/04/17 09:08:16;;;;;;;;;;;;;;;17.26;48.53;100591.28;5019887;28;1067;-52
2023/04/17 09:10:43;;;;;;;;;;;;;;;16.55;49.37;100587.66;5019172;28;1043;-57
2023/04/17 09:13:08;;;;;;;;;;;;;;;16.28;48.40;100592.66;5023535;28;1484;-56
2023/04/17 09:15:34;;;;;;;;;;;;;;;16.70;48.47;100594.22;5019298;28;1984;-54
2023/04/17 09:18:00;;;;;;;;;;;;;;;16.66;49.32;100588.47;5000216;28;1328;-51
2023/04/17 09:20:26;;;;;;;;;;;;;;;16.38;48.35;100589.88;5006813;28;1099;-49
2023/04/17 09:23:01;;;;;;;;;;;;;;;17.21;48.62;100577.56;5019756;28;1226;-50
2023/04/17 09:25:27;;;;;;;;;;;;;;;16.46;49.03;100570.09;5018144;28;1084;-53
2023/04/17 09:27:52;;;;;;;;;;;;;;;16.24;47.84;100571.25;5019384;28;1070;-54
2023/04/17 09:30:18;;;;;;;;;;;;;;;16.84;49.20;100562.31;5019564;28;1096;-56
2023/04/17 09:32:43;;;;;;;;;;;;;;;16.38;48.96;100556.94;5019326;28;1186;-57
2023/04/17 09:35:09;;;;;;;;;;;;;;;16.30;47.53;100550.13;5017705;28;1977;-56
2023/04/17 09:37:57;;;;;;;;;;;;;;;17.00;48.59;100554.88;5002271;28;1301;-57
2023/04/17 09:40:24;;;;;;;;;;;;;;;16.69;48.85;100549.47;5018359;28;1239;-56
2023/04/17 09:42:59;;;;;;;;;;;;;;;16.78;49.01;100546.97;5018881;28;1278;-56
2023/04/17 09:45:25;;;;;;;;;;;;;;;17.22;49.32;100550.91;5018728;28;1362;-56
2023/04/17 09:48:00;;;;;;;;;;;;;;;16.64;49.44;100545.91;5021094;28;1317;-53
2023/04/17 09:50:26;;;;;;;;;;;;;;;16.33;48.48;100533.09;5018657;28;1295;-57
2023/04/17 09:52:52;;;;;;;;;;;;;;;16.35;47.69;100528.13;5017957;28;1302;-56
2023/04/17 09:55:20;;;;;;;;;;;;;;;17.34;48.70;100515.66;5018486;28;1901;-57
2023/04/17 09:57:49;;;;;;;;;;;;;;;16.57;49.31;100499.53;5018217;28;1067;-59
2023/04/17 10:00:16;;;;;;;;;;;;;;;16.76;49.16;100492.31;5022021;28;1102;-59
2023/04/17 10:02:42;;;;;;;;;;;;;;;16.94;49.56;100490.06;5018095;28;1230;-58
2023/04/17 10:05:09;;;;;;;;;;;;;;;16.63;48.79;100479.19;5017666;28;1080;-51
2023/04/17 10:07:38;;;;;;;;;;;;;;;16.64;48.95;100434.19;5018685;28;1047;-55
2023/04/17 10:10:08;;;;;;;;;;;;;;;17.30;49.12;100404.66;5019166;28;1141;-56
2023/04/17 10:12:34;;;;;;;;;;;;;;;16.73;49.05;100395.97;5021547;28;1087;-57
2023/04/17 10:14:59;;;;;;;;;;;;;;;16.55;48.18;100417.47;5006415;28;1891;-58
2023/04/17 10:17:27;;;;;;;;;;;;;;;17.37;49.12;100438.13;5016961;28;1204;-57
2023/04/17 10:19:53;;;;;;;;;;;;;;;16.70;49.40;100449.50;5018573;28;1524;-56
2023/04/17 10:22:18;;;;;;;;;;;;;;;16.48;48.37;100449.91;5031639;28;1100;-58
2023/04/17 10:24:46;;;;;;;;;;;;;;;17.43;49.20;100450.75;5017544;28;990;-51
2023/04/17 10:27:23;;;;;;;;;;;;;;;16.76;49.72;100459.38;5017939;28;1235;-51
2023/04/17 10:29:55;;;;;;;;;;;;;;;16.55;48.27;100466.91;5017836;28;1243;-53
2023/04/17 10:32:24;;;;;;;;;;;;;;;16.37;47.67;100460.09;5017990;28;1320;-53
2023/04/17 10:34:54;;;;;;;;;;;;;;;16.70;48.45;100481.66;5017530;28;1906;-53
2023/04/17 10:37:21;;;;;;;;;;;;;;;16.67;49.01;100477.53;5020425;28;1250;-50
2023/04/17 10:40:08;;;;;;;;;;;;;;;16.39;48.37;100482.56;5017792;28;1222;-54
2023/04/17 10:42:34;;;;;;;;;;;;;;;16.18;47.50;100479.06;5018087;28;1159;-54
2023/04/17 10:45:03;;;;;;;;;;;;;;;17.11;48.57;100473.22;5017606;28;1238;-53
2023/04/17 10:47:32;;;;;;;;;;;;;;;16.74;49.20;100445.09;5017678;28;1215;-55
2023/04/17 10:49:58;;;;;;;;;;;;;;;16.39;48.58;100443.34;4999616;28;1052;-56
2023/04/17 10:52:29;;;;;;;;;;;;;;;16.34;47.71;100433.22;4997790;28;1349;-55
2023/04/17 10:55:01;;;;;;;;;;;;;;;16.62;48.13;100439.16;5014927;28;1906;-56
2023/04/17 10:57:46;;;;;;;;;;;;;;;16.76;49.02;100434.66;5017351;28;1250;-55
2023/04/17 11:00:32;;;;;;;;;;;;;;;16.34;48.44;100446.94;5017016;28;1191;-56
2023/04/17 11:02:58;;;;;;;;;;;;;;;16.27;47.54;100460.13;5017377;28;1215;-53
2023/04/17 11:05:24;;;;;;;;;;;;;;;17.38;48.23;100461.75;5017480;28;1234;-52
2023/04/17 11:07:50;;;;;;;;;;;;;;;16.63;48.79;100457.22;5017359;28;1068;-56
2023/04/17 11:10:19;;;;;;;;;;;;;;;16.34;47.96;100468.88;5017010;28;1262;-53
2023/04/17 11:12:45;;;;;;;;;;;;;;;16.75;48.43;100470.66;5016882;28;1297;-55
2023/04/17 11:15:11;;;;;;;;;;;;;;;16.95;48.95;100469.75;5016590;28;1981;-56
2023/04/17 11:17:38;;;;;;;;;;;;;;;16.60;48.50;100468.78;5017117;28;1254;-56
2023/04/17 11:20:05;;;;;;;;;;;;;;;16.66;48.67;100475.06;5017306;28;1108;-57
2023/04/17 11:22:32;;;;;;;;;;;;;;;16.98;49.44;100474.66;5012707;28;1166;-57
2023/04/17 11:24:58;;;;;;;;;;;;;;;16.62;48.90;100490.47;5008929;28;1250;-56
2023/04/17 11:27:23;;;;;;;;;;;;;;;16.43;47.70;100489.16;5017047;28;1254;-57
2023/04/17 11:29:49;;;;;;;;;;;;;;;16.23;47.34;100487.31;5016835;28;1207;-56
2023/04/17 11:32:15;;;;;;;;;;;;;;;16.26;46.63;100488.66;5016942;28;1134;-56
2023/04/17 11:34:40;;;;;;;;;;;;;;;17.17;48.48;100490.50;5017190;28;1906;-55
2023/04/17 11:37:06;;;;;;;;;;;;;;;16.48;48.81;100487.50;5016554;28;841;-56
2023/04/17 11:39:32;;;;;;;;;;;;;;;16.83;48.86;100504.91;5017281;28;1167;-55
2023/04/17 11:41:57;;;;;;;;;;;;;;;16.83;49.32;100503.00;5009333;28;1092;-56
2023/04/17 11:44:23;;;;;;;;;;;;;;;16.49;48.53;100519.34;4997017;28;1231;-57
2023/04/17 11:46:49;;;;;;;;;;;;;;;16.79;48.55;100523.06;4996349;28;1398;-55
2023/04/17 11:49:15;;;;;;;;;;;;;;;16.68;49.03;100520.38;5008014;28;1251;-56
2023/04/17 11:51:43;;;;;;;;;;;;;;;16.45;48.19;100530.03;5016275;28;1332;-56
2023/04/17 11:54:08;;;;;;;;;;;;;;;16.31;47.59;100521.56;5016090;28;1902;-55
2023/04/17 11:56:34;;;;;;;;;;;;;;;16.30;46.96;100522.69;5016610;28;1262;-57
2023/04/17 11:59:02;;;;;;;;;;;;;;;17.27;48.22;100532.47;5015809;28;1251;-55
2023/04/17 12:01:28;;;;;;;;;;;;;;;16.54;48.82;100531.13;5016391;28;1223;-57
2023/04/17 12:03:54;;;;;;;;;;;;;;;16.37;48.46;100530.63;5016693;28;1263;-54
2023/04/17 12:06:20;;;;;;;;;;;;;;;17.00;48.79;100530.16;5016236;28;1309;-57
2023/04/17 12:08:52;;;;;;;;;;;;;;;16.42;48.62;100528.69;5016087;28;1203;-57
2023/04/17 12:11:23;;;;;;;;;;;;;;;16.34;47.82;100531.16;5016308;28;1199;-54
2023/04/17 12:13:50;;;;;;;;;;;;;;;16.16;47.24;100524.34;5004405;28;1972;-56
2023/04/17 12:16:15;;;;;;;;;;;;;;;16.22;47.21;100528.72;4996529;28;1327;-57
2023/04/17 12:18:41;;;;;;;;;;;;;;;17.04;48.50;100539.47;4995958;28;1302;-55
2023/04/17 12:21:07;;;;;;;;;;;;;;;16.52;48.34;100538.81;4996773;28;1222;-57
2023/04/17 12:23:33;;;;;;;;;;;;;;;16.36;47.68;100540.75;5017160;28;1150;-57
2023/04/17 12:25:58;;;;;;;;;;;;;;;16.84;48.31;100531.28;5016810;28;980;-57
2023/04/17 12:28:24;;;;;;;;;;;;;;;16.58;48.46;100520.41;5015800;28;1039;-57
2023/04/17 12:30:50;;;;;;;;;;;;;;;16.29;48.27;100521.03;5016367;28;1103;-57
2023/04/17 12:33:15;;;;;;;;;;;;;;;16.17;47.38;100520.50;5019062;28;1143;-56
2023/04/17 12:35:41;;;;;;;;;;;;;;;16.18;47.50;100527.63;5024107;28;1918;-59
2023/04/17 12:38:06;;;;;;;;;;;;;;;16.81;48.51;100529.91;4999146;28;1257;-57
2023/04/17 12:40:33;;;;;;;;;;;;;;;16.32;48.57;100531.44;4996468;28;1274;-55
2023/04/17 12:42:58;;;;;;;;;;;;;;;16.16;47.68;100536.16;5001266;28;1243;-56
2023/04/17 12:45:24;;;;;;;;;;;;;;;17.26;47.92;100536.34;5015750;28;1373;-57